sensor_id;sensor_type;location;lat;lon;timestamp;P1;durP1;ratioP1;P2;durP2;ratioP2
37785;SDS011;23625;48.784;9.336;2023-02-28T00:01:20;10.00;;;2.97;;
37785;SDS011;23625;48.784;9.336;2023-02-28T00:03:46;5.50;;;2.63;;
37785;SDS011;23625;48.784;9.336;2023-02-28T00:06:12;6.93;;;2.72;;
37785;SDS011;23625;48.784;9.336;2023-02-28T00:08:38;6.45;;;3.00;;
37785;SDS011;23625;48.784;9.336;2023-02-28T00:11:05;7.35;;;2.97;;
37785;SDS011;23625;48.784;9.336;2023-02-28T00:13:32;10.85;;;3.40;;
37785;SDS011;23625;48.784;9.336;2023-02-28T00:16:03;7.93;;;3.33;;
37785;SDS011;23625;48.784;9.336;2023-02-28T00:18:30;5.30;;;2.63;;
37785;SDS011;23625;48.784;9.336;2023-02-28T00:20:56;5.50;;;2.80;;
37785;SDS011;23625;48.784;9.336;2023-02-28T00:23:23;6.80;;;3.05;;
37785;SDS011;23625;48.784;9.336;2023-02-28T00:25:48;14.85;;;2.72;;
37785;SDS011;23625;48.784;9.336;2023-02-28T00:28:15;7.00;;;2.90;;
37785;SDS011;23625;48.784;9.336;2023-02-28T00:30:41;8.43;;;2.85;;
37785;SDS011;23625;48.784;9.336;2023-02-28T00:33:06;3.95;;;2.45;;
37785;SDS011;23625;48.784;9.336;2023-02-28T00:35:32;6.03;;;2.83;;
37785;SDS011;23625;48.784;9.336;2023-02-28T00:37:57;8.30;;;2.70;;
37785;SDS011;23625;48.784;9.336;2023-02-28T00:40:23;7.45;;;2.78;;
37785;SDS011;23625;48.784;9.336;2023-02-28T00:42:48;7.85;;;2.45;;
37785;SDS011;23625;48.784;9.336;2023-02-28T00:45:14;5.93;;;2.88;;
37785;SDS011;23625;48.784;9.336;2023-02-28T00:47:40;4.45;;;2.50;;
37785;SDS011;23625;48.784;9.336;2023-02-28T00:50:05;5.18;;;2.83;;
37785;SDS011;23625;48.784;9.336;2023-02-28T00:52:32;9.18;;;3.13;;
37785;SDS011;23625;48.784;9.336;2023-02-28T00:54:57;7.40;;;3.55;;
37785;SDS011;23625;48.784;9.336;2023-02-28T00:57:23;11.18;;;3.47;;
37785;SDS011;23625;48.784;9.336;2023-02-28T00:59:49;8.55;;;3.38;;
37785;SDS011;23625;48.784;9.336;2023-02-28T01:02:14;6.90;;;2.97;;
37785;SDS011;23625;48.784;9.336;2023-02-28T01:04:40;7.25;;;3.00;;
37785;SDS011;23625;48.784;9.336;2023-02-28T01:07:06;5.68;;;2.88;;
37785;SDS011;23625;48.784;9.336;2023-02-28T01:09:31;7.95;;;3.47;;
37785;SDS011;23625;48.784;9.336;2023-02-28T01:11:57;7.32;;;2.95;;
37785;SDS011;23625;48.784;9.336;2023-02-28T01:14:22;4.00;;;2.50;;
37785;SDS011;23625;48.784;9.336;2023-02-28T01:16:48;11.63;;;2.80;;
37785;SDS011;23625;48.784;9.336;2023-02-28T01:19:14;8.73;;;2.60;;
37785;SDS011;23625;48.784;9.336;2023-02-28T01:21:40;11.18;;;3.88;;
37785;SDS011;23625;48.784;9.336;2023-02-28T01:24:06;12.38;;;2.97;;
37785;SDS011;23625;48.784;9.336;2023-02-28T01:26:32;8.82;;;3.50;;
37785;SDS011;23625;48.784;9.336;2023-02-28T01:28:58;4.90;;;2.92;;
37785;SDS011;23625;48.784;9.336;2023-02-28T01:31:23;10.48;;;3.13;;
37785;SDS011;23625;48.784;9.336;2023-02-28T01:33:50;10.35;;;3.03;;
37785;SDS011;23625;48.784;9.336;2023-02-28T01:36:23;7.43;;;2.70;;
37785;SDS011;23625;48.784;9.336;2023-02-28T01:38:49;72.57;;;17.67;;
37785;SDS011;23625;48.784;9.336;2023-02-28T01:41:26;60.90;;;15.20;;
37785;SDS011;23625;48.784;9.336;2023-02-28T01:43:58;20.33;;;6.22;;
37785;SDS011;23625;48.784;9.336;2023-02-28T01:46:28;12.10;;;4.45;;
37785;SDS011;23625;48.784;9.336;2023-02-28T01:48:57;18.73;;;5.82;;
37785;SDS011;23625;48.784;9.336;2023-02-28T01:51:28;25.23;;;7.07;;
37785;SDS011;23625;48.784;9.336;2023-02-28T01:54:20;8.55;;;3.40;;
37785;SDS011;23625;48.784;9.336;2023-02-28T01:56:52;7.80;;;2.90;;
37785;SDS011;23625;48.784;9.336;2023-02-28T01:59:42;10.23;;;3.47;;
37785;SDS011;23625;48.784;9.336;2023-02-28T02:02:16;11.13;;;4.13;;
37785;SDS011;23625;48.784;9.336;2023-02-28T02:04:54;10.32;;;3.80;;
37785;SDS011;23625;48.784;9.336;2023-02-28T02:07:35;5.88;;;3.20;;
37785;SDS011;23625;48.784;9.336;2023-02-28T02:12:57;7.68;;;3.30;;
37785;SDS011;23625;48.784;9.336;2023-02-28T02:15:37;6.85;;;3.17;;
37785;SDS011;23625;48.784;9.336;2023-02-28T02:18:29;8.98;;;3.80;;
37785;SDS011;23625;48.784;9.336;2023-02-28T02:40:10;7.78;;;3.92;;
37785;SDS011;23625;48.784;9.336;2023-02-28T02:42:52;12.07;;;3.78;;
37785;SDS011;23625;48.784;9.336;2023-02-28T02:48:00;8.27;;;3.33;;
37785;SDS011;23625;48.784;9.336;2023-02-28T02:50:36;17.85;;;5.07;;
37785;SDS011;23625;48.784;9.336;2023-02-28T02:53:05;8.55;;;4.43;;
37785;SDS011;23625;48.784;9.336;2023-02-28T02:55:35;11.52;;;4.85;;
37785;SDS011;23625;48.784;9.336;2023-02-28T02:58:05;6.95;;;3.90;;
37785;SDS011;23625;48.784;9.336;2023-02-28T03:00:39;16.63;;;5.88;;
37785;SDS011;23625;48.784;9.336;2023-02-28T03:03:09;27.38;;;8.55;;
37785;SDS011;23625;48.784;9.336;2023-02-28T03:05:39;24.15;;;8.73;;
37785;SDS011;23625;48.784;9.336;2023-02-28T03:08:10;18.27;;;5.55;;
37785;SDS011;23625;48.784;9.336;2023-02-28T03:10:38;62.75;;;16.95;;
37785;SDS011;23625;48.784;9.336;2023-02-28T03:13:13;30.60;;;10.43;;
37785;SDS011;23625;48.784;9.336;2023-02-28T03:16:15;29.10;;;8.23;;
37785;SDS011;23625;48.784;9.336;2023-02-28T03:29:58;16.83;;;6.70;;
37785;SDS011;23625;48.784;9.336;2023-02-28T03:32:36;25.75;;;7.38;;
37785;SDS011;23625;48.784;9.336;2023-02-28T03:35:09;18.13;;;6.03;;
37785;SDS011;23625;48.784;9.336;2023-02-28T03:37:48;16.25;;;6.55;;
37785;SDS011;23625;48.784;9.336;2023-02-28T03:40:21;24.75;;;9.43;;
37785;SDS011;23625;48.784;9.336;2023-02-28T03:42:51;16.65;;;7.65;;
37785;SDS011;23625;48.784;9.336;2023-02-28T03:45:24;21.45;;;9.10;;
37785;SDS011;23625;48.784;9.336;2023-02-28T03:47:54;17.75;;;6.82;;
37785;SDS011;23625;48.784;9.336;2023-02-28T03:50:41;23.75;;;8.60;;
37785;SDS011;23625;48.784;9.336;2023-02-28T03:55:48;24.02;;;10.10;;
37785;SDS011;23625;48.784;9.336;2023-02-28T04:01:20;17.25;;;6.97;;
37785;SDS011;23625;48.784;9.336;2023-02-28T04:03:56;12.88;;;5.72;;
37785;SDS011;23625;48.784;9.336;2023-02-28T04:06:22;24.08;;;8.65;;
37785;SDS011;23625;48.784;9.336;2023-02-28T04:08:49;19.77;;;7.07;;
37785;SDS011;23625;48.784;9.336;2023-02-28T04:11:18;17.65;;;5.90;;
37785;SDS011;23625;48.784;9.336;2023-02-28T04:14:02;9.93;;;5.78;;
37785;SDS011;23625;48.784;9.336;2023-02-28T04:16:29;19.95;;;7.40;;
37785;SDS011;23625;48.784;9.336;2023-02-28T04:18:55;11.55;;;5.30;;
37785;SDS011;23625;48.784;9.336;2023-02-28T04:21:27;11.60;;;6.25;;
37785;SDS011;23625;48.784;9.336;2023-02-28T04:23:54;17.05;;;7.25;;
37785;SDS011;23625;48.784;9.336;2023-02-28T04:26:20;16.08;;;6.35;;
37785;SDS011;23625;48.784;9.336;2023-02-28T04:28:45;11.48;;;4.72;;
37785;SDS011;23625;48.784;9.336;2023-02-28T04:31:11;16.55;;;7.78;;
37785;SDS011;23625;48.784;9.336;2023-02-28T04:33:37;9.95;;;4.97;;
37785;SDS011;23625;48.784;9.336;2023-02-28T04:36:03;13.63;;;5.65;;
37785;SDS011;23625;48.784;9.336;2023-02-28T04:38:34;17.48;;;8.20;;
37785;SDS011;23625;48.784;9.336;2023-02-28T04:41:02;23.08;;;8.00;;
37785;SDS011;23625;48.784;9.336;2023-02-28T04:43:28;10.70;;;5.57;;
37785;SDS011;23625;48.784;9.336;2023-02-28T04:45:55;10.07;;;5.22;;
37785;SDS011;23625;48.784;9.336;2023-02-28T04:48:22;14.32;;;6.55;;
37785;SDS011;23625;48.784;9.336;2023-02-28T04:50:55;11.85;;;5.50;;
37785;SDS011;23625;48.784;9.336;2023-02-28T04:53:29;13.10;;;5.72;;
37785;SDS011;23625;48.784;9.336;2023-02-28T04:55:55;12.00;;;5.38;;
37785;SDS011;23625;48.784;9.336;2023-02-28T04:58:22;14.02;;;5.80;;
37785;SDS011;23625;48.784;9.336;2023-02-28T05:00:48;13.63;;;6.32;;
37785;SDS011;23625;48.784;9.336;2023-02-28T05:03:17;17.55;;;5.65;;
37785;SDS011;23625;48.784;9.336;2023-02-28T05:05:42;11.63;;;5.68;;
37785;SDS011;23625;48.784;9.336;2023-02-28T05:08:08;22.13;;;5.80;;
37785;SDS011;23625;48.784;9.336;2023-02-28T05:10:34;15.73;;;6.53;;
37785;SDS011;23625;48.784;9.336;2023-02-28T05:13:00;16.13;;;6.28;;
37785;SDS011;23625;48.784;9.336;2023-02-28T05:15:26;19.75;;;7.55;;
37785;SDS011;23625;48.784;9.336;2023-02-28T05:17:51;15.10;;;6.50;;
37785;SDS011;23625;48.784;9.336;2023-02-28T05:20:17;19.08;;;6.38;;
37785;SDS011;23625;48.784;9.336;2023-02-28T05:22:43;17.60;;;6.45;;
37785;SDS011;23625;48.784;9.336;2023-02-28T05:25:12;26.00;;;9.52;;
37785;SDS011;23625;48.784;9.336;2023-02-28T05:27:41;19.60;;;6.32;;
37785;SDS011;23625;48.784;9.336;2023-02-28T05:30:07;14.85;;;6.68;;
37785;SDS011;23625;48.784;9.336;2023-02-28T05:32:35;18.13;;;7.63;;
37785;SDS011;23625;48.784;9.336;2023-02-28T05:35:02;19.00;;;7.03;;
37785;SDS011;23625;48.784;9.336;2023-02-28T05:37:28;15.98;;;7.05;;
37785;SDS011;23625;48.784;9.336;2023-02-28T05:39:54;17.30;;;6.57;;
37785;SDS011;23625;48.784;9.336;2023-02-28T05:42:19;17.95;;;7.38;;
37785;SDS011;23625;48.784;9.336;2023-02-28T05:44:45;25.33;;;7.43;;
37785;SDS011;23625;48.784;9.336;2023-02-28T05:47:11;13.05;;;5.80;;
37785;SDS011;23625;48.784;9.336;2023-02-28T05:49:40;15.30;;;7.03;;
37785;SDS011;23625;48.784;9.336;2023-02-28T05:52:06;14.90;;;7.45;;
37785;SDS011;23625;48.784;9.336;2023-02-28T05:54:32;25.73;;;11.55;;
37785;SDS011;23625;48.784;9.336;2023-02-28T05:56:57;19.90;;;9.13;;
37785;SDS011;23625;48.784;9.336;2023-02-28T05:59:23;22.27;;;8.32;;
37785;SDS011;23625;48.784;9.336;2023-02-28T06:01:48;15.00;;;7.57;;
37785;SDS011;23625;48.784;9.336;2023-02-28T06:04:15;22.67;;;8.45;;
37785;SDS011;23625;48.784;9.336;2023-02-28T06:06:44;17.20;;;7.43;;
37785;SDS011;23625;48.784;9.336;2023-02-28T06:09:10;14.85;;;7.65;;
37785;SDS011;23625;48.784;9.336;2023-02-28T06:11:36;17.75;;;7.50;;
37785;SDS011;23625;48.784;9.336;2023-02-28T06:14:02;16.10;;;6.60;;
37785;SDS011;23625;48.784;9.336;2023-02-28T06:16:29;15.88;;;7.00;;
37785;SDS011;23625;48.784;9.336;2023-02-28T06:18:57;17.20;;;7.22;;
37785;SDS011;23625;48.784;9.336;2023-02-28T06:21:24;18.67;;;7.13;;
37785;SDS011;23625;48.784;9.336;2023-02-28T06:23:50;19.52;;;7.28;;
37785;SDS011;23625;48.784;9.336;2023-02-28T06:26:16;17.15;;;7.70;;
37785;SDS011;23625;48.784;9.336;2023-02-28T06:28:41;26.33;;;7.78;;
37785;SDS011;23625;48.784;9.336;2023-02-28T06:31:08;20.48;;;7.30;;
37785;SDS011;23625;48.784;9.336;2023-02-28T06:33:36;16.08;;;6.85;;
37785;SDS011;23625;48.784;9.336;2023-02-28T06:36:02;16.95;;;7.18;;
37785;SDS011;23625;48.784;9.336;2023-02-28T06:38:29;20.45;;;8.85;;
37785;SDS011;23625;48.784;9.336;2023-02-28T06:40:55;17.40;;;7.43;;
37785;SDS011;23625;48.784;9.336;2023-02-28T06:43:23;14.80;;;7.93;;
37785;SDS011;23625;48.784;9.336;2023-02-28T06:45:49;19.77;;;8.00;;
37785;SDS011;23625;48.784;9.336;2023-02-28T06:48:15;16.00;;;7.72;;
37785;SDS011;23625;48.784;9.336;2023-02-28T06:50:41;19.00;;;8.10;;
37785;SDS011;23625;48.784;9.336;2023-02-28T06:53:07;16.98;;;7.40;;
37785;SDS011;23625;48.784;9.336;2023-02-28T06:55:32;18.27;;;7.05;;
37785;SDS011;23625;48.784;9.336;2023-02-28T06:57:58;15.23;;;7.25;;
37785;SDS011;23625;48.784;9.336;2023-02-28T07:00:24;15.73;;;8.25;;
37785;SDS011;23625;48.784;9.336;2023-02-28T07:02:50;15.93;;;8.10;;
37785;SDS011;23625;48.784;9.336;2023-02-28T07:05:15;17.15;;;7.68;;
37785;SDS011;23625;48.784;9.336;2023-02-28T07:07:41;22.30;;;8.50;;
37785;SDS011;23625;48.784;9.336;2023-02-28T07:10:10;17.75;;;7.47;;
37785;SDS011;23625;48.784;9.336;2023-02-28T07:12:41;15.65;;;7.93;;
37785;SDS011;23625;48.784;9.336;2023-02-28T07:15:08;17.00;;;7.72;;
37785;SDS011;23625;48.784;9.336;2023-02-28T07:17:34;19.50;;;8.00;;
37785;SDS011;23625;48.784;9.336;2023-02-28T07:20:00;21.65;;;9.32;;
37785;SDS011;23625;48.784;9.336;2023-02-28T07:22:25;19.48;;;8.18;;
37785;SDS011;23625;48.784;9.336;2023-02-28T07:24:51;17.40;;;8.40;;
37785;SDS011;23625;48.784;9.336;2023-02-28T07:27:16;17.50;;;8.48;;
37785;SDS011;23625;48.784;9.336;2023-02-28T07:29:48;16.15;;;7.75;;
37785;SDS011;23625;48.784;9.336;2023-02-28T07:32:15;19.60;;;8.88;;
37785;SDS011;23625;48.784;9.336;2023-02-28T07:34:40;20.35;;;8.05;;
37785;SDS011;23625;48.784;9.336;2023-02-28T07:37:06;16.90;;;8.27;;
37785;SDS011;23625;48.784;9.336;2023-02-28T07:39:32;18.23;;;8.93;;
37785;SDS011;23625;48.784;9.336;2023-02-28T07:41:57;20.25;;;8.52;;
37785;SDS011;23625;48.784;9.336;2023-02-28T07:44:24;19.65;;;8.55;;
37785;SDS011;23625;48.784;9.336;2023-02-28T07:46:50;22.20;;;8.95;;
37785;SDS011;23625;48.784;9.336;2023-02-28T07:49:17;19.70;;;8.50;;
37785;SDS011;23625;48.784;9.336;2023-02-28T07:51:43;25.40;;;9.38;;
37785;SDS011;23625;48.784;9.336;2023-02-28T07:54:08;20.20;;;8.25;;
37785;SDS011;23625;48.784;9.336;2023-02-28T07:56:34;20.38;;;9.35;;
37785;SDS011;23625;48.784;9.336;2023-02-28T07:58:59;17.98;;;8.85;;
37785;SDS011;23625;48.784;9.336;2023-02-28T08:01:26;16.80;;;8.63;;
37785;SDS011;23625;48.784;9.336;2023-02-28T08:03:52;20.83;;;8.93;;
37785;SDS011;23625;48.784;9.336;2023-02-28T08:06:20;18.38;;;8.45;;
37785;SDS011;23625;48.784;9.336;2023-02-28T08:08:47;18.70;;;8.30;;
37785;SDS011;23625;48.784;9.336;2023-02-28T08:11:14;20.77;;;9.45;;
37785;SDS011;23625;48.784;9.336;2023-02-28T08:13:41;21.70;;;7.88;;
37785;SDS011;23625;48.784;9.336;2023-02-28T08:16:08;16.77;;;9.02;;
37785;SDS011;23625;48.784;9.336;2023-02-28T08:18:34;17.30;;;8.18;;
37785;SDS011;23625;48.784;9.336;2023-02-28T08:21:05;24.02;;;8.52;;
37785;SDS011;23625;48.784;9.336;2023-02-28T08:23:32;17.92;;;9.20;;
37785;SDS011;23625;48.784;9.336;2023-02-28T08:25:58;22.63;;;8.98;;
37785;SDS011;23625;48.784;9.336;2023-02-28T08:28:24;27.13;;;9.57;;
37785;SDS011;23625;48.784;9.336;2023-02-28T08:30:50;22.13;;;10.50;;
37785;SDS011;23625;48.784;9.336;2023-02-28T08:33:15;20.73;;;9.48;;
37785;SDS011;23625;48.784;9.336;2023-02-28T08:35:41;22.63;;;9.90;;
37785;SDS011;23625;48.784;9.336;2023-02-28T08:38:06;19.90;;;9.38;;
37785;SDS011;23625;48.784;9.336;2023-02-28T08:40:32;19.80;;;7.95;;
37785;SDS011;23625;48.784;9.336;2023-02-28T08:42:58;17.58;;;8.68;;
37785;SDS011;23625;48.784;9.336;2023-02-28T08:45:24;26.00;;;10.35;;
37785;SDS011;23625;48.784;9.336;2023-02-28T08:47:50;24.77;;;9.75;;
37785;SDS011;23625;48.784;9.336;2023-02-28T08:50:17;25.13;;;10.25;;
37785;SDS011;23625;48.784;9.336;2023-02-28T08:52:43;19.17;;;8.80;;
37785;SDS011;23625;48.784;9.336;2023-02-28T08:55:09;22.25;;;9.60;;
37785;SDS011;23625;48.784;9.336;2023-02-28T08:57:35;25.60;;;9.95;;
37785;SDS011;23625;48.784;9.336;2023-02-28T09:00:01;25.35;;;10.48;;
37785;SDS011;23625;48.784;9.336;2023-02-28T09:02:29;29.20;;;10.90;;
37785;SDS011;23625;48.784;9.336;2023-02-28T09:04:56;23.58;;;9.60;;
37785;SDS011;23625;48.784;9.336;2023-02-28T09:07:22;19.35;;;9.35;;
37785;SDS011;23625;48.784;9.336;2023-02-28T09:09:47;21.55;;;9.20;;
37785;SDS011;23625;48.784;9.336;2023-02-28T09:12:20;22.20;;;9.52;;
37785;SDS011;23625;48.784;9.336;2023-02-28T09:14:47;22.35;;;9.18;;
37785;SDS011;23625;48.784;9.336;2023-02-28T09:17:12;21.75;;;9.82;;
37785;SDS011;23625;48.784;9.336;2023-02-28T09:19:38;20.95;;;9.10;;
37785;SDS011;23625;48.784;9.336;2023-02-28T09:22:03;20.92;;;10.13;;
37785;SDS011;23625;48.784;9.336;2023-02-28T09:24:29;24.60;;;11.45;;
37785;SDS011;23625;48.784;9.336;2023-02-28T09:26:56;20.48;;;9.77;;
37785;SDS011;23625;48.784;9.336;2023-02-28T09:29:22;25.83;;;10.45;;
37785;SDS011;23625;48.784;9.336;2023-02-28T09:31:48;19.92;;;9.75;;
37785;SDS011;23625;48.784;9.336;2023-02-28T09:34:13;18.60;;;8.98;;
37785;SDS011;23625;48.784;9.336;2023-02-28T09:36:39;21.67;;;8.85;;
37785;SDS011;23625;48.784;9.336;2023-02-28T09:39:04;21.35;;;8.98;;
37785;SDS011;23625;48.784;9.336;2023-02-28T09:41:36;22.30;;;9.10;;
37785;SDS011;23625;48.784;9.336;2023-02-28T09:44:15;22.40;;;10.00;;
37785;SDS011;23625;48.784;9.336;2023-02-28T09:46:47;17.73;;;8.45;;
37785;SDS011;23625;48.784;9.336;2023-02-28T09:49:18;21.55;;;10.63;;
37785;SDS011;23625;48.784;9.336;2023-02-28T09:52:09;30.30;;;10.82;;
37785;SDS011;23625;48.784;9.336;2023-02-28T09:54:38;24.25;;;9.93;;
37785;SDS011;23625;48.784;9.336;2023-02-28T09:59:59;24.77;;;9.73;;
37785;SDS011;23625;48.784;9.336;2023-02-28T10:05:52;21.10;;;9.60;;
37785;SDS011;23625;48.784;9.336;2023-02-28T10:08:26;25.95;;;10.07;;
37785;SDS011;23625;48.784;9.336;2023-02-28T10:10:57;25.98;;;11.25;;
37785;SDS011;23625;48.784;9.336;2023-02-28T10:19:06;20.15;;;8.85;;
37785;SDS011;23625;48.784;9.336;2023-02-28T10:27:02;21.30;;;10.30;;
37785;SDS011;23625;48.784;9.336;2023-02-28T10:29:46;19.70;;;9.98;;
37785;SDS011;23625;48.784;9.336;2023-02-28T10:32:15;19.17;;;10.10;;
37785;SDS011;23625;48.784;9.336;2023-02-28T10:34:42;21.63;;;10.88;;
37785;SDS011;23625;48.784;9.336;2023-02-28T10:37:08;23.35;;;10.48;;
37785;SDS011;23625;48.784;9.336;2023-02-28T10:39:37;26.23;;;10.27;;
37785;SDS011;23625;48.784;9.336;2023-02-28T10:42:29;22.38;;;10.43;;
37785;SDS011;23625;48.784;9.336;2023-02-28T10:47:48;19.52;;;9.55;;
37785;SDS011;23625;48.784;9.336;2023-02-28T10:52:55;24.20;;;10.95;;
37785;SDS011;23625;48.784;9.336;2023-02-28T10:58:25;18.77;;;9.25;;
37785;SDS011;23625;48.784;9.336;2023-02-28T11:00:52;18.05;;;8.70;;
37785;SDS011;23625;48.784;9.336;2023-02-28T11:03:30;24.70;;;10.02;;
37785;SDS011;23625;48.784;9.336;2023-02-28T11:05:58;26.73;;;10.20;;
37785;SDS011;23625;48.784;9.336;2023-02-28T11:08:28;23.63;;;10.70;;
37785;SDS011;23625;48.784;9.336;2023-02-28T11:10:55;20.10;;;10.05;;
37785;SDS011;23625;48.784;9.336;2023-02-28T11:13:27;35.28;;;10.52;;
37785;SDS011;23625;48.784;9.336;2023-02-28T11:15:59;22.80;;;10.52;;
37785;SDS011;23625;48.784;9.336;2023-02-28T11:18:34;27.77;;;11.15;;
37785;SDS011;23625;48.784;9.336;2023-02-28T11:21:01;25.63;;;10.40;;
37785;SDS011;23625;48.784;9.336;2023-02-28T11:23:29;24.73;;;12.05;;
37785;SDS011;23625;48.784;9.336;2023-02-28T11:25:58;24.48;;;12.48;;
37785;SDS011;23625;48.784;9.336;2023-02-28T11:28:27;26.00;;;11.45;;
37785;SDS011;23625;48.784;9.336;2023-02-28T11:31:03;22.55;;;10.60;;
37785;SDS011;23625;48.784;9.336;2023-02-28T11:36:24;23.27;;;10.40;;
37785;SDS011;23625;48.784;9.336;2023-02-28T11:38:57;20.48;;;9.60;;
37785;SDS011;23625;48.784;9.336;2023-02-28T11:46:50;17.13;;;8.63;;
37785;SDS011;23625;48.784;9.336;2023-02-28T11:49:34;20.20;;;9.55;;
37785;SDS011;23625;48.784;9.336;2023-02-28T11:58:09;20.85;;;9.70;;
37785;SDS011;23625;48.784;9.336;2023-02-28T12:06:38;20.63;;;9.25;;
37785;SDS011;23625;48.784;9.336;2023-02-28T12:09:28;17.05;;;9.02;;
37785;SDS011;23625;48.784;9.336;2023-02-28T12:12:04;31.13;;;11.75;;
37785;SDS011;23625;48.784;9.336;2023-02-28T12:18:00;19.20;;;10.20;;
37785;SDS011;23625;48.784;9.336;2023-02-28T12:28:43;22.23;;;10.05;;
37785;SDS011;23625;48.784;9.336;2023-02-28T12:31:35;20.13;;;9.60;;
37785;SDS011;23625;48.784;9.336;2023-02-28T12:34:09;19.58;;;10.02;;
37785;SDS011;23625;48.784;9.336;2023-02-28T12:36:50;18.42;;;10.13;;
37785;SDS011;23625;48.784;9.336;2023-02-28T12:39:26;17.80;;;9.05;;
37785;SDS011;23625;48.784;9.336;2023-02-28T12:44:33;16.85;;;9.55;;
37785;SDS011;23625;48.784;9.336;2023-02-28T12:47:03;19.25;;;10.00;;
37785;SDS011;23625;48.784;9.336;2023-02-28T12:49:33;20.65;;;9.82;;
37785;SDS011;23625;48.784;9.336;2023-02-28T12:52:03;19.42;;;9.80;;
37785;SDS011;23625;48.784;9.336;2023-02-28T12:54:39;19.30;;;10.27;;
37785;SDS011;23625;48.784;9.336;2023-02-28T12:57:21;20.50;;;10.88;;
37785;SDS011;23625;48.784;9.336;2023-02-28T13:00:14;15.52;;;9.75;;
37785;SDS011;23625;48.784;9.336;2023-02-28T13:02:50;15.90;;;9.55;;
37785;SDS011;23625;48.784;9.336;2023-02-28T13:11:06;18.13;;;9.32;;
37785;SDS011;23625;48.784;9.336;2023-02-28T13:13:31;17.20;;;9.13;;
37785;SDS011;23625;48.784;9.336;2023-02-28T13:18:42;17.45;;;9.40;;
37785;SDS011;23625;48.784;9.336;2023-02-28T13:21:21;16.25;;;9.07;;
37785;SDS011;23625;48.784;9.336;2023-02-28T13:26:21;13.85;;;8.68;;
37785;SDS011;23625;48.784;9.336;2023-02-28T13:34:33;27.27;;;11.82;;
37785;SDS011;23625;48.784;9.336;2023-02-28T13:50:32;17.15;;;9.27;;
37785;SDS011;23625;48.784;9.336;2023-02-28T13:58:37;17.17;;;9.00;;
37785;SDS011;23625;48.784;9.336;2023-02-28T14:06:48;19.92;;;9.05;;
37785;SDS011;23625;48.784;9.336;2023-02-28T14:09:36;17.63;;;9.05;;
37785;SDS011;23625;48.784;9.336;2023-02-28T14:18:10;14.45;;;9.57;;
37785;SDS011;23625;48.784;9.336;2023-02-28T14:20:45;21.77;;;9.70;;
37785;SDS011;23625;48.784;9.336;2023-02-28T14:25:54;16.60;;;9.57;;
37785;SDS011;23625;48.784;9.336;2023-02-28T14:28:42;18.40;;;8.97;;
37785;SDS011;23625;48.784;9.336;2023-02-28T14:31:37;18.65;;;8.93;;
37785;SDS011;23625;48.784;9.336;2023-02-28T14:36:37;17.75;;;10.05;;
37785;SDS011;23625;48.784;9.336;2023-02-28T14:39:13;17.08;;;9.18;;
37785;SDS011;23625;48.784;9.336;2023-02-28T14:41:42;17.90;;;9.23;;
37785;SDS011;23625;48.784;9.336;2023-02-28T14:44:16;18.33;;;8.95;;
37785;SDS011;23625;48.784;9.336;2023-02-28T14:46:50;14.48;;;9.20;;
37785;SDS011;23625;48.784;9.336;2023-02-28T14:52:15;20.67;;;9.85;;
37785;SDS011;23625;48.784;9.336;2023-02-28T14:55:23;18.83;;;9.45;;
37785;SDS011;23625;48.784;9.336;2023-02-28T14:57:43;19.77;;;8.95;;
37785;SDS011;23625;48.784;9.336;2023-02-28T15:00:25;14.57;;;8.23;;
37785;SDS011;23625;48.784;9.336;2023-02-28T15:02:55;15.32;;;8.25;;
37785;SDS011;23625;48.784;9.336;2023-02-28T15:10:30;15.82;;;8.55;;
37785;SDS011;23625;48.784;9.336;2023-02-28T15:15:24;14.52;;;8.90;;
37785;SDS011;23625;48.784;9.336;2023-02-28T15:18:06;20.00;;;9.18;;
37785;SDS011;23625;48.784;9.336;2023-02-28T15:20:38;26.77;;;14.35;;
37785;SDS011;23625;48.784;9.336;2023-02-28T15:23:05;21.98;;;11.13;;
37785;SDS011;23625;48.784;9.336;2023-02-28T15:25:31;19.20;;;9.98;;
37785;SDS011;23625;48.784;9.336;2023-02-28T15:27:57;21.42;;;10.27;;
37785;SDS011;23625;48.784;9.336;2023-02-28T15:35:48;20.70;;;10.23;;
37785;SDS011;23625;48.784;9.336;2023-02-28T15:38:21;22.45;;;10.73;;
37785;SDS011;23625;48.784;9.336;2023-02-28T15:40:53;16.92;;;10.13;;
37785;SDS011;23625;48.784;9.336;2023-02-28T15:51:19;25.25;;;12.88;;
37785;SDS011;23625;48.784;9.336;2023-02-28T15:53:57;37.30;;;17.77;;
37785;SDS011;23625;48.784;9.336;2023-02-28T15:56:28;22.98;;;10.48;;
37785;SDS011;23625;48.784;9.336;2023-02-28T15:58:56;18.23;;;10.40;;
37785;SDS011;23625;48.784;9.336;2023-02-28T16:01:35;22.58;;;12.45;;
37785;SDS011;23625;48.784;9.336;2023-02-28T16:04:06;26.92;;;12.02;;
37785;SDS011;23625;48.784;9.336;2023-02-28T16:06:40;24.13;;;11.23;;
37785;SDS011;23625;48.784;9.336;2023-02-28T16:09:26;26.92;;;11.85;;
37785;SDS011;23625;48.784;9.336;2023-02-28T16:11:55;25.95;;;11.82;;
37785;SDS011;23625;48.784;9.336;2023-02-28T16:14:23;23.90;;;11.45;;
37785;SDS011;23625;48.784;9.336;2023-02-28T16:16:53;29.35;;;11.27;;
37785;SDS011;23625;48.784;9.336;2023-02-28T16:19:21;18.98;;;9.95;;
37785;SDS011;23625;48.784;9.336;2023-02-28T16:21:47;24.55;;;11.30;;
37785;SDS011;23625;48.784;9.336;2023-02-28T16:24:13;23.25;;;11.20;;
37785;SDS011;23625;48.784;9.336;2023-02-28T16:26:40;22.90;;;10.75;;
37785;SDS011;23625;48.784;9.336;2023-02-28T16:29:08;22.23;;;10.20;;
37785;SDS011;23625;48.784;9.336;2023-02-28T16:31:38;24.42;;;10.65;;
37785;SDS011;23625;48.784;9.336;2023-02-28T16:34:04;20.10;;;9.80;;
37785;SDS011;23625;48.784;9.336;2023-02-28T16:36:32;26.45;;;15.55;;
37785;SDS011;23625;48.784;9.336;2023-02-28T16:38:57;21.75;;;11.63;;
37785;SDS011;23625;48.784;9.336;2023-02-28T16:41:24;22.52;;;10.48;;
37785;SDS011;23625;48.784;9.336;2023-02-28T16:43:53;20.30;;;11.32;;
37785;SDS011;23625;48.784;9.336;2023-02-28T16:46:23;21.67;;;10.93;;
37785;SDS011;23625;48.784;9.336;2023-02-28T16:48:50;22.77;;;10.52;;
37785;SDS011;23625;48.784;9.336;2023-02-28T16:51:16;18.67;;;10.15;;
37785;SDS011;23625;48.784;9.336;2023-02-28T16:53:43;19.92;;;10.27;;
37785;SDS011;23625;48.784;9.336;2023-02-28T16:56:22;23.05;;;10.85;;
37785;SDS011;23625;48.784;9.336;2023-02-28T16:58:52;24.90;;;11.18;;
37785;SDS011;23625;48.784;9.336;2023-02-28T17:01:24;27.92;;;13.05;;
37785;SDS011;23625;48.784;9.336;2023-02-28T17:03:50;26.77;;;14.02;;
37785;SDS011;23625;48.784;9.336;2023-02-28T17:06:17;27.95;;;13.32;;
37785;SDS011;23625;48.784;9.336;2023-02-28T17:08:48;26.33;;;13.02;;
37785;SDS011;23625;48.784;9.336;2023-02-28T17:11:15;22.88;;;11.18;;
37785;SDS011;23625;48.784;9.336;2023-02-28T17:13:42;24.52;;;10.82;;
37785;SDS011;23625;48.784;9.336;2023-02-28T17:16:13;23.00;;;10.65;;
37785;SDS011;23625;48.784;9.336;2023-02-28T17:18:57;23.85;;;10.70;;
37785;SDS011;23625;48.784;9.336;2023-02-28T17:21:27;27.88;;;12.18;;
37785;SDS011;23625;48.784;9.336;2023-02-28T17:23:54;22.90;;;11.80;;
37785;SDS011;23625;48.784;9.336;2023-02-28T17:26:20;24.27;;;12.88;;
37785;SDS011;23625;48.784;9.336;2023-02-28T17:28:49;30.23;;;14.05;;
37785;SDS011;23625;48.784;9.336;2023-02-28T17:31:15;34.47;;;14.95;;
37785;SDS011;23625;48.784;9.336;2023-02-28T17:33:42;44.05;;;15.32;;
37785;SDS011;23625;48.784;9.336;2023-02-28T17:36:14;36.38;;;14.98;;
37785;SDS011;23625;48.784;9.336;2023-02-28T17:38:42;42.50;;;17.83;;
37785;SDS011;23625;48.784;9.336;2023-02-28T17:41:09;80.00;;;30.60;;
37785;SDS011;23625;48.784;9.336;2023-02-28T17:43:35;87.88;;;33.92;;
37785;SDS011;23625;48.784;9.336;2023-02-28T17:46:01;135.93;;;48.25;;